sensor_id;sensor_type;location;lat;lon;timestamp;temperature;humidity
24902;DHT22;31328;51.402;0.016;2022-11-11T00:00:59;15.10;99.90
24902;DHT22;31328;51.402;0.016;2022-11-11T00:03:44;15.10;99.90
24902;DHT22;31328;51.402;0.016;2022-11-11T00:06:29;15.10;99.90
24902;DHT22;31328;51.402;0.016;2022-11-11T00:09:14;15.20;99.90
24902;DHT22;31328;51.402;0.016;2022-11-11T00:11:59;15.10;99.90
24902;DHT22;31328;51.402;0.016;2022-11-11T00:14:43;15.10;99.90
24902;DHT22;31328;51.402;0.016;2022-11-11T00:17:28;15.20;99.90
24902;DHT22;31328;51.402;0.016;2022-11-11T00:20:32;15.10;99.90
24902;DHT22;31328;51.402;0.016;2022-11-11T00:23:35;15.20;99.90
24902;DHT22;31328;51.402;0.016;2022-11-11T00:26:39;15.20;99.90
24902;DHT22;31328;51.402;0.016;2022-11-11T00:29:24;15.30;99.90
24902;DHT22;31328;51.402;0.016;2022-11-11T00:32:09;15.30;99.90
24902;DHT22;31328;51.402;0.016;2022-11-11T00:35:06;15.30;99.90
24902;DHT22;31328;51.402;0.016;2022-11-11T00:38:30;15.30;99.90
24902;DHT22;31328;51.402;0.016;2022-11-11T00:41:30;15.30;99.90
24902;DHT22;31328;51.402;0.016;2022-11-11T00:44:15;15.30;99.90
24902;DHT22;31328;51.402;0.016;2022-11-11T00:47:00;15.30;99.90
24902;DHT22;31328;51.402;0.016;2022-11-11T00:50:06;15.30;99.90
24902;DHT22;31328;51.402;0.016;2022-11-11T00:53:15;15.40;99.90
24902;DHT22;31328;51.402;0.016;2022-11-11T00:56:00;15.40;99.90
24902;DHT22;31328;51.402;0.016;2022-11-11T00:58:45;15.40;99.90
24902;DHT22;31328;51.402;0.016;2022-11-11T01:01:30;15.40;99.90
24902;DHT22;31328;51.402;0.016;2022-11-11T01:04:15;15.40;99.90
24902;DHT22;31328;51.402;0.016;2022-11-11T01:07:00;15.40;99.90
24902;DHT22;31328;51.402;0.016;2022-11-11T01:09:45;15.40;99.90
24902;DHT22;31328;51.402;0.016;2022-11-11T01:12:30;15.40;99.90
24902;DHT22;31328;51.402;0.016;2022-11-11T01:15:15;15.50;99.90
24902;DHT22;31328;51.402;0.016;2022-11-11T01:18:00;15.50;99.90
24902;DHT22;31328;51.402;0.016;2022-11-11T01:20:44;15.50;99.90
24902;DHT22;31328;51.402;0.016;2022-11-11T01:23:32;15.50;99.90
24902;DHT22;31328;51.402;0.016;2022-11-11T01:26:21;15.50;99.90
24902;DHT22;31328;51.402;0.016;2022-11-11T01:29:05;15.50;99.90
24902;DHT22;31328;51.402;0.016;2022-11-11T01:31:50;15.50;99.90
24902;DHT22;31328;51.402;0.016;2022-11-11T01:34:35;15.50;99.90
24902;DHT22;31328;51.402;0.016;2022-11-11T01:37:20;15.50;99.90
24902;DHT22;31328;51.402;0.016;2022-11-11T01:40:05;15.50;99.90
24902;DHT22;31328;51.402;0.016;2022-11-11T01:46:01;15.50;99.90
24902;DHT22;31328;51.402;0.016;2022-11-11T01:48:52;15.50;99.90
24902;DHT22;31328;51.402;0.016;2022-11-11T01:55:18;15.50;99.90
24902;DHT22;31328;51.402;0.016;2022-11-11T01:58:08;15.50;99.90
24902;DHT22;31328;51.402;0.016;2022-11-11T02:00:56;15.50;99.90
24902;DHT22;31328;51.402;0.016;2022-11-11T02:03:42;15.50;99.90
24902;DHT22;31328;51.402;0.016;2022-11-11T02:06:51;15.50;99.90
24902;DHT22;31328;51.402;0.016;2022-11-11T02:09:40;15.50;99.90
24902;DHT22;31328;51.402;0.016;2022-11-11T02:12:26;15.50;99.90
24902;DHT22;31328;51.402;0.016;2022-11-11T02:15:30;15.50;99.90
24902;DHT22;31328;51.402;0.016;2022-11-11T02:18:15;15.50;99.90
24902;DHT22;31328;51.402;0.016;2022-11-11T02:21:00;15.50;99.90
24902;DHT22;31328;51.402;0.016;2022-11-11T02:24:09;15.50;99.90
24902;DHT22;31328;51.402;0.016;2022-11-11T02:26:57;15.50;99.90
24902;DHT22;31328;51.402;0.016;2022-11-11T02:29:45;15.40;99.90
24902;DHT22;31328;51.402;0.016;2022-11-11T02:32:31;15.40;99.90
24902;DHT22;31328;51.402;0.016;2022-11-11T02:35:18;15.40;99.90
24902;DHT22;31328;51.402;0.016;2022-11-11T02:38:05;15.40;99.90
24902;DHT22;31328;51.402;0.016;2022-11-11T02:40:55;15.40;99.90
24902;DHT22;31328;51.402;0.016;2022-11-11T02:43:59;15.40;99.90
24902;DHT22;31328;51.402;0.016;2022-11-11T02:46:44;15.40;99.90
24902;DHT22;31328;51.402;0.016;2022-11-11T02:49:29;15.40;99.90
24902;DHT22;31328;51.402;0.016;2022-11-11T02:52:14;15.40;99.90
24902;DHT22;31328;51.402;0.016;2022-11-11T02:54:59;15.40;99.90
24902;DHT22;31328;51.402;0.016;2022-11-11T02:57:44;15.40;99.90
24902;DHT22;31328;51.402;0.016;2022-11-11T03:00:29;15.40;99.90
24902;DHT22;31328;51.402;0.016;2022-11-11T03:03:14;15.40;99.90
24902;DHT22;31328;51.402;0.016;2022-11-11T03:05:58;15.40;99.90
24902;DHT22;31328;51.402;0.016;2022-11-11T03:08:43;15.40;99.90
24902;DHT22;31328;51.402;0.016;2022-11-11T03:11:28;15.40;99.90
24902;DHT22;31328;51.402;0.016;2022-11-11T03:14:12;15.40;99.90
24902;DHT22;31328;51.402;0.016;2022-11-11T03:16:57;15.40;99.90
24902;DHT22;31328;51.402;0.016;2022-11-11T03:20:01;15.50;99.90
24902;DHT22;31328;51.402;0.016;2022-11-11T03:23:11;15.40;99.90
24902;DHT22;31328;51.402;0.016;2022-11-11T03:25:56;15.40;99.90
24902;DHT22;31328;51.402;0.016;2022-11-11T03:28:41;15.40;99.90
24902;DHT22;31328;51.402;0.016;2022-11-11T03:31:26;15.40;99.90
24902;DHT22;31328;51.402;0.016;2022-11-11T03:34:11;15.40;99.90
24902;DHT22;31328;51.402;0.016;2022-11-11T03:37:06;15.40;99.90
24902;DHT22;31328;51.402;0.016;2022-11-11T03:40:10;15.40;99.90
24902;DHT22;31328;51.402;0.016;2022-11-11T03:42:55;15.40;99.90
24902;DHT22;31328;51.402;0.016;2022-11-11T03:45:41;15.40;99.90
24902;DHT22;31328;51.402;0.016;2022-11-11T03:48:28;15.30;99.90
24902;DHT22;31328;51.402;0.016;2022-11-11T03:51:14;15.40;99.90
24902;DHT22;31328;51.402;0.016;2022-11-11T03:53:58;15.40;99.90
24902;DHT22;31328;51.402;0.016;2022-11-11T03:56:43;15.30;99.90
24902;DHT22;31328;51.402;0.016;2022-11-11T03:59:28;15.30;99.90
24902;DHT22;31328;51.402;0.016;2022-11-11T04:02:13;15.30;99.90
24902;DHT22;31328;51.402;0.016;2022-11-11T04:05:17;15.30;99.90
24902;DHT22;31328;51.402;0.016;2022-11-11T04:08:34;15.20;99.90
24902;DHT22;31328;51.402;0.016;2022-11-11T04:11:40;15.20;99.90
24902;DHT22;31328;51.402;0.016;2022-11-11T04:14:26;15.20;99.90
24902;DHT22;31328;51.402;0.016;2022-11-11T04:17:29;15.20;99.90
24902;DHT22;31328;51.402;0.016;2022-11-11T04:20:14;15.20;99.90
24902;DHT22;31328;51.402;0.016;2022-11-11T04:23:18;15.20;99.90
24902;DHT22;31328;51.402;0.016;2022-11-11T04:26:03;15.20;99.90
24902;DHT22;31328;51.402;0.016;2022-11-11T04:28:47;15.20;99.90
24902;DHT22;31328;51.402;0.016;2022-11-11T04:31:51;15.20;99.90
24902;DHT22;31328;51.402;0.016;2022-11-11T04:34:57;15.10;99.90
24902;DHT22;31328;51.402;0.016;2022-11-11T04:37:48;15.10;99.90
24902;DHT22;31328;51.402;0.016;2022-11-11T04:40:55;15.10;99.90
24902;DHT22;31328;51.402;0.016;2022-11-11T04:43:50;15.10;99.90
24902;DHT22;31328;51.402;0.016;2022-11-11T04:46:53;15.10;99.90
24902;DHT22;31328;51.402;0.016;2022-11-11T04:49:38;15.00;99.90
24902;DHT22;31328;51.402;0.016;2022-11-11T04:52:23;15.00;99.90
24902;DHT22;31328;51.402;0.016;2022-11-11T04:55:11;15.00;99.90
24902;DHT22;31328;51.402;0.016;2022-11-11T04:58:17;15.00;99.90
24902;DHT22;31328;51.402;0.016;2022-11-11T05:01:03;14.90;99.90
24902;DHT22;31328;51.402;0.016;2022-11-11T05:03:47;14.90;99.90
24902;DHT22;31328;51.402;0.016;2022-11-11T05:06:32;14.90;99.90
24902;DHT22;31328;51.402;0.016;2022-11-11T05:09:36;14.90;99.90
24902;DHT22;31328;51.402;0.016;2022-11-11T05:12:21;14.90;99.90
24902;DHT22;31328;51.402;0.016;2022-11-11T05:15:07;14.80;99.90
24902;DHT22;31328;51.402;0.016;2022-11-11T05:18:12;14.80;99.90
24902;DHT22;31328;51.402;0.016;2022-11-11T05:21:25;14.80;99.90
24902;DHT22;31328;51.402;0.016;2022-11-11T05:24:11;14.80;99.90
24902;DHT22;31328;51.402;0.016;2022-11-11T05:27:15;14.80;99.90
24902;DHT22;31328;51.402;0.016;2022-11-11T05:30:00;14.70;99.90
24902;DHT22;31328;51.402;0.016;2022-11-11T05:32:46;14.70;99.90
24902;DHT22;31328;51.402;0.016;2022-11-11T05:35:31;14.70;99.90
24902;DHT22;31328;51.402;0.016;2022-11-11T05:38:16;14.70;99.90
24902;DHT22;31328;51.402;0.016;2022-11-11T05:41:04;14.70;99.90
24902;DHT22;31328;51.402;0.016;2022-11-11T05:43:49;14.70;99.90
24902;DHT22;31328;51.402;0.016;2022-11-11T05:46:34;14.70;99.90
24902;DHT22;31328;51.402;0.016;2022-11-11T05:49:20;14.70;99.90
24902;DHT22;31328;51.402;0.016;2022-11-11T05:52:05;14.70;99.90
24902;DHT22;31328;51.402;0.016;2022-11-11T05:54:50;14.70;99.90
24902;DHT22;31328;51.402;0.016;2022-11-11T05:57:35;14.70;99.90
24902;DHT22;31328;51.402;0.016;2022-11-11T06:00:20;14.70;99.90
24902;DHT22;31328;51.402;0.016;2022-11-11T06:03:04;14.60;99.90
24902;DHT22;31328;51.402;0.016;2022-11-11T06:05:49;14.60;99.90
24902;DHT22;31328;51.402;0.016;2022-11-11T06:08:35;14.60;99.90
24902;DHT22;31328;51.402;0.016;2022-11-11T06:11:20;14.70;99.90
24902;DHT22;31328;51.402;0.016;2022-11-11T06:14:05;14.60;99.90
24902;DHT22;31328;51.402;0.016;2022-11-11T06:16:50;14.60;99.90
24902;DHT22;31328;51.402;0.016;2022-11-11T06:19:35;14.60;99.90
24902;DHT22;31328;51.402;0.016;2022-11-11T06:22:20;14.60;99.90
24902;DHT22;31328;51.402;0.016;2022-11-11T06:25:29;14.60;99.90
24902;DHT22;31328;51.402;0.016;2022-11-11T06:28:34;14.60;99.90
24902;DHT22;31328;51.402;0.016;2022-11-11T06:31:21;14.60;99.90
24902;DHT22;31328;51.402;0.016;2022-11-11T06:34:06;14.70;99.90
24902;DHT22;31328;51.402;0.016;2022-11-11T06:36:51;14.70;99.90
24902;DHT22;31328;51.402;0.016;2022-11-11T06:39:36;14.70;99.90
24902;DHT22;31328;51.402;0.016;2022-11-11T06:42:21;14.80;99.90
24902;DHT22;31328;51.402;0.016;2022-11-11T06:45:06;14.80;99.90
24902;DHT22;31328;51.402;0.016;2022-11-11T06:47:51;14.80;99.90
24902;DHT22;31328;51.402;0.016;2022-11-11T06:50:36;14.80;99.90
24902;DHT22;31328;51.402;0.016;2022-11-11T06:53:21;14.80;99.90
24902;DHT22;31328;51.402;0.016;2022-11-11T06:56:07;14.90;99.90
24902;DHT22;31328;51.402;0.016;2022-11-11T06:58:52;14.90;99.90
24902;DHT22;31328;51.402;0.016;2022-11-11T07:01:37;14.90;99.90
24902;DHT22;31328;51.402;0.016;2022-11-11T07:04:22;14.90;99.90
24902;DHT22;31328;51.402;0.016;2022-11-11T07:07:07;14.90;99.90
24902;DHT22;31328;51.402;0.016;2022-11-11T07:09:51;15.00;99.90
24902;DHT22;31328;51.402;0.016;2022-11-11T07:12:39;15.00;99.90
24902;DHT22;31328;51.402;0.016;2022-11-11T07:15:24;15.00;99.90
24902;DHT22;31328;51.402;0.016;2022-11-11T07:18:10;15.00;99.90
24902;DHT22;31328;51.402;0.016;2022-11-11T07:20:55;15.10;99.90
24902;DHT22;31328;51.402;0.016;2022-11-11T07:23:40;15.10;99.90
24902;DHT22;31328;51.402;0.016;2022-11-11T07:26:25;15.10;99.90
24902;DHT22;31328;51.402;0.016;2022-11-11T07:29:09;15.10;99.90
24902;DHT22;31328;51.402;0.016;2022-11-11T07:31:56;15.10;99.90
24902;DHT22;31328;51.402;0.016;2022-11-11T07:34:40;15.10;99.90
24902;DHT22;31328;51.402;0.016;2022-11-11T07:37:25;15.10;99.90
24902;DHT22;31328;51.402;0.016;2022-11-11T07:40:13;15.10;99.90
24902;DHT22;31328;51.402;0.016;2022-11-11T07:42:58;15.20;99.90
24902;DHT22;31328;51.402;0.016;2022-11-11T07:45:43;15.20;99.90
24902;DHT22;31328;51.402;0.016;2022-11-11T07:48:27;15.20;99.90
24902;DHT22;31328;51.402;0.016;2022-11-11T07:51:12;15.20;99.90
24902;DHT22;31328;51.402;0.016;2022-11-11T07:53:57;15.20;99.90
24902;DHT22;31328;51.402;0.016;2022-11-11T07:56:42;15.20;99.90
24902;DHT22;31328;51.402;0.016;2022-11-11T07:59:27;15.20;99.90
24902;DHT22;31328;51.402;0.016;2022-11-11T08:02:11;15.20;99.90
24902;DHT22;31328;51.402;0.016;2022-11-11T08:04:56;15.20;99.90
24902;DHT22;31328;51.402;0.016;2022-11-11T08:07:41;15.30;99.90
24902;DHT22;31328;51.402;0.016;2022-11-11T08:10:26;15.30;99.90
24902;DHT22;31328;51.402;0.016;2022-11-11T08:13:11;15.30;99.90
24902;DHT22;31328;51.402;0.016;2022-11-11T08:16:15;15.30;99.90
24902;DHT22;31328;51.402;0.016;2022-11-11T08:19:00;15.30;99.90
24902;DHT22;31328;51.402;0.016;2022-11-11T08:21:45;15.40;99.90
24902;DHT22;31328;51.402;0.016;2022-11-11T08:24:29;15.40;99.90
24902;DHT22;31328;51.402;0.016;2022-11-11T08:27:14;15.40;99.90
24902;DHT22;31328;51.402;0.016;2022-11-11T08:29:59;15.40;99.90
24902;DHT22;31328;51.402;0.016;2022-11-11T08:32:44;15.40;99.90
24902;DHT22;31328;51.402;0.016;2022-11-11T08:35:29;15.50;99.90
24902;DHT22;31328;51.402;0.016;2022-11-11T08:38:14;15.50;99.90
24902;DHT22;31328;51.402;0.016;2022-11-11T08:41:05;15.50;99.90
24902;DHT22;31328;51.402;0.016;2022-11-11T08:43:54;15.50;99.90
24902;DHT22;31328;51.402;0.016;2022-11-11T08:46:39;15.50;99.90
24902;DHT22;31328;51.402;0.016;2022-11-11T08:49:24;15.60;99.90
24902;DHT22;31328;51.402;0.016;2022-11-11T08:52:10;15.60;99.90
24902;DHT22;31328;51.402;0.016;2022-11-11T08:54:55;15.60;99.90
24902;DHT22;31328;51.402;0.016;2022-11-11T08:57:40;15.60;99.90
24902;DHT22;31328;51.402;0.016;2022-11-11T09:00:25;15.60;99.90
24902;DHT22;31328;51.402;0.016;2022-11-11T09:03:10;15.60;99.90
24902;DHT22;31328;51.402;0.016;2022-11-11T09:05:55;15.60;99.90
24902;DHT22;31328;51.402;0.016;2022-11-11T09:08:43;15.60;99.90
24902;DHT22;31328;51.402;0.016;2022-11-11T09:11:29;15.50;99.90
24902;DHT22;31328;51.402;0.016;2022-11-11T09:14:20;15.60;99.90
24902;DHT22;31328;51.402;0.016;2022-11-11T09:17:06;15.50;99.90
24902;DHT22;31328;51.402;0.016;2022-11-11T09:19:51;15.50;99.90
24902;DHT22;31328;51.402;0.016;2022-11-11T09:22:41;15.50;99.90
24902;DHT22;31328;51.402;0.016;2022-11-11T09:25:27;15.50;99.90
24902;DHT22;31328;51.402;0.016;2022-11-11T09:28:12;15.50;99.90
24902;DHT22;31328;51.402;0.016;2022-11-11T09:30:58;15.50;99.90
24902;DHT22;31328;51.402;0.016;2022-11-11T09:33:43;15.60;99.90
24902;DHT22;31328;51.402;0.016;2022-11-11T09:36:28;15.60;99.90
24902;DHT22;31328;51.402;0.016;2022-11-11T09:39:13;15.60;99.90
24902;DHT22;31328;51.402;0.016;2022-11-11T09:42:07;15.70;99.90
24902;DHT22;31328;51.402;0.016;2022-11-11T09:54:53;15.80;99.90
24902;DHT22;31328;51.402;0.016;2022-11-11T09:57:44;15.80;99.90
24902;DHT22;31328;51.402;0.016;2022-11-11T10:00:34;15.80;99.90
24902;DHT22;31328;51.402;0.016;2022-11-11T10:03:21;15.80;99.90
24902;DHT22;31328;51.402;0.016;2022-11-11T10:14:45;15.90;99.90
24902;DHT22;31328;51.402;0.016;2022-11-11T10:17:38;15.90;99.90
24902;DHT22;31328;51.402;0.016;2022-11-11T10:20:28;15.90;99.90
24902;DHT22;31328;51.402;0.016;2022-11-11T10:23:17;15.90;99.90
24902;DHT22;31328;51.402;0.016;2022-11-11T10:26:19;15.90;99.90
24902;DHT22;31328;51.402;0.016;2022-11-11T10:29:12;15.90;99.90
24902;DHT22;31328;51.402;0.016;2022-11-11T10:32:04;15.90;99.90
24902;DHT22;31328;51.402;0.016;2022-11-11T10:34:53;15.90;99.90
24902;DHT22;31328;51.402;0.016;2022-11-11T10:37:42;15.90;99.90
24902;DHT22;31328;51.402;0.016;2022-11-11T10:40:45;15.90;99.90
24902;DHT22;31328;51.402;0.016;2022-11-11T10:43:32;15.90;99.90
24902;DHT22;31328;51.402;0.016;2022-11-11T10:46:27;15.80;99.90
24902;DHT22;31328;51.402;0.016;2022-11-11T10:49:17;15.80;99.90
24902;DHT22;31328;51.402;0.016;2022-11-11T10:52:47;15.80;99.90
24902;DHT22;31328;51.402;0.016;2022-11-11T10:59:16;15.80;99.90
24902;DHT22;31328;51.402;0.016;2022-11-11T11:07:56;15.80;99.90
24902;DHT22;31328;51.402;0.016;2022-11-11T11:10:46;15.80;99.90
24902;DHT22;31328;51.402;0.016;2022-11-11T11:13:45;15.90;99.90
24902;DHT22;31328;51.402;0.016;2022-11-11T11:16:35;16.00;99.90
24902;DHT22;31328;51.402;0.016;2022-11-11T11:19:24;16.00;99.90
24902;DHT22;31328;51.402;0.016;2022-11-11T11:22:09;16.10;99.90
24902;DHT22;31328;51.402;0.016;2022-11-11T11:25:08;16.10;99.90
24902;DHT22;31328;51.402;0.016;2022-11-11T11:28:11;16.10;99.90
24902;DHT22;31328;51.402;0.016;2022-11-11T11:31:06;16.20;99.90
24902;DHT22;31328;51.402;0.016;2022-11-11T11:33:54;16.10;99.90
24902;DHT22;31328;51.402;0.016;2022-11-11T11:36:40;16.20;99.90
24902;DHT22;31328;51.402;0.016;2022-11-11T11:39:37;16.10;99.90
24902;DHT22;31328;51.402;0.016;2022-11-11T11:42:29;16.10;99.90
24902;DHT22;31328;51.402;0.016;2022-11-11T11:45:26;16.10;99.90
24902;DHT22;31328;51.402;0.016;2022-11-11T11:49:08;16.10;99.90
24902;DHT22;31328;51.402;0.016;2022-11-11T11:55:00;16.00;99.90
24902;DHT22;31328;51.402;0.016;2022-11-11T11:58:06;16.00;99.90
24902;DHT22;31328;51.402;0.016;2022-11-11T12:01:16;15.90;99.90
24902;DHT22;31328;51.402;0.016;2022-11-11T12:04:20;15.90;99.90
24902;DHT22;31328;51.402;0.016;2022-11-11T12:07:18;15.90;99.90
24902;DHT22;31328;51.402;0.016;2022-11-11T12:10:09;15.90;99.90
24902;DHT22;31328;51.402;0.016;2022-11-11T12:19:53;16.00;99.90
24902;DHT22;31328;51.402;0.016;2022-11-11T12:29:08;16.10;99.90
24902;DHT22;31328;51.402;0.016;2022-11-11T12:41:19;16.20;99.90
24902;DHT22;31328;51.402;0.016;2022-11-11T12:44:08;16.20;99.90
24902;DHT22;31328;51.402;0.016;2022-11-11T12:56:22;16.30;99.90
24902;DHT22;31328;51.402;0.016;2022-11-11T13:13:52;16.50;99.90
24902;DHT22;31328;51.402;0.016;2022-11-11T13:16:40;16.40;99.90
24902;DHT22;31328;51.402;0.016;2022-11-11T13:22:30;16.50;99.90
24902;DHT22;31328;51.402;0.016;2022-11-11T13:25:22;16.40;99.90
24902;DHT22;31328;51.402;0.016;2022-11-11T13:34:11;16.50;99.90
24902;DHT22;31328;51.402;0.016;2022-11-11T13:36:58;16.50;99.90
24902;DHT22;31328;51.402;0.016;2022-11-11T13:39:46;16.50;99.90
24902;DHT22;31328;51.402;0.016;2022-11-11T13:42:45;16.50;99.90
24902;DHT22;31328;51.402;0.016;2022-11-11T13:45:35;16.60;99.90
24902;DHT22;31328;51.402;0.016;2022-11-11T13:48:33;16.60;99.90
24902;DHT22;31328;51.402;0.016;2022-11-11T13:51:24;16.50;99.90
24902;DHT22;31328;51.402;0.016;2022-11-11T13:54:29;16.50;99.90
24902;DHT22;31328;51.402;0.016;2022-11-11T13:57:20;16.50;99.90
24902;DHT22;31328;51.402;0.016;2022-11-11T14:00:23;16.50;99.90
24902;DHT22;31328;51.402;0.016;2022-11-11T14:09:00;16.40;99.90
24902;DHT22;31328;51.402;0.016;2022-11-11T14:11:45;16.30;99.90
24902;DHT22;31328;51.402;0.016;2022-11-11T14:17:21;16.30;99.90
24902;DHT22;31328;51.402;0.016;2022-11-11T14:28:58;16.30;99.90
24902;DHT22;31328;51.402;0.016;2022-11-11T14:35:19;16.30;99.90
24902;DHT22;31328;51.402;0.016;2022-11-11T14:38:14;16.30;99.90
24902;DHT22;31328;51.402;0.016;2022-11-11T14:50:01;16.40;99.90
24902;DHT22;31328;51.402;0.016;2022-11-11T14:52:46;16.40;99.90
24902;DHT22;31328;51.402;0.016;2022-11-11T14:55:35;16.30;99.90
24902;DHT22;31328;51.402;0.016;2022-11-11T14:58:31;16.40;99.90
24902;DHT22;31328;51.402;0.016;2022-11-11T15:01:19;16.30;99.90
24902;DHT22;31328;51.402;0.016;2022-11-11T15:04:04;16.30;99.90
24902;DHT22;31328;51.402;0.016;2022-11-11T15:06:57;16.30;99.90
24902;DHT22;31328;51.402;0.016;2022-11-11T15:22:37;15.90;99.90
24902;DHT22;31328;51.402;0.016;2022-11-11T15:25:33;15.80;99.90
24902;DHT22;31328;51.402;0.016;2022-11-11T15:35:35;15.60;99.90
24902;DHT22;31328;51.402;0.016;2022-11-11T15:38:20;15.50;99.90
24902;DHT22;31328;51.402;0.016;2022-11-11T15:41:23;15.50;99.90
24902;DHT22;31328;51.402;0.016;2022-11-11T15:47:06;15.30;99.90
24902;DHT22;31328;51.402;0.016;2022-11-11T15:49:55;15.20;99.90
24902;DHT22;31328;51.402;0.016;2022-11-11T15:52:40;15.20;99.90
24902;DHT22;31328;51.402;0.016;2022-11-11T15:55:31;15.10;99.90
24902;DHT22;31328;51.402;0.016;2022-11-11T15:58:27;15.10;99.90
24902;DHT22;31328;51.402;0.016;2022-11-11T16:01:12;15.00;99.90
24902;DHT22;31328;51.402;0.016;2022-11-11T16:03:58;15.10;99.90
24902;DHT22;31328;51.402;0.016;2022-11-11T16:06:43;15.00;99.90
24902;DHT22;31328;51.402;0.016;2022-11-11T16:09:29;15.00;99.90
24902;DHT22;31328;51.402;0.016;2022-11-11T16:12:22;15.00;99.90
24902;DHT22;31328;51.402;0.016;2022-11-11T16:15:08;15.00;99.90
24902;DHT22;31328;51.402;0.016;2022-11-11T16:17:59;15.00;99.90
24902;DHT22;31328;51.402;0.016;2022-11-11T16:21:02;14.90;99.90
24902;DHT22;31328;51.402;0.016;2022-11-11T16:23:49;15.00;99.90
24902;DHT22;31328;51.402;0.016;2022-11-11T16:26:35;14.90;99.90
24902;DHT22;31328;51.402;0.016;2022-11-11T16:29:22;14.90;99.90
24902;DHT22;31328;51.402;0.016;2022-11-11T16:35:30;14.90;99.90
24902;DHT22;31328;51.402;0.016;2022-11-11T16:38:32;14.80;99.90
24902;DHT22;31328;51.402;0.016;2022-11-11T16:41:28;14.80;99.90
24902;DHT22;31328;51.402;0.016;2022-11-11T16:44:47;14.80;99.90
24902;DHT22;31328;51.402;0.016;2022-11-11T16:47:41;14.80;99.90
24902;DHT22;31328;51.402;0.016;2022-11-11T16:50:28;14.80;99.90
24902;DHT22;31328;51.402;0.016;2022-11-11T16:53:24;14.80;99.90
24902;DHT22;31328;51.402;0.016;2022-11-11T16:56:22;14.80;99.90
24902;DHT22;31328;51.402;0.016;2022-11-11T16:59:24;14.80;99.90
24902;DHT22;31328;51.402;0.016;2022-11-11T17:02:21;14.80;99.90
24902;DHT22;31328;51.402;0.016;2022-11-11T17:05:07;14.80;99.90
24902;DHT22;31328;51.402;0.016;2022-11-11T17:07:52;14.80;99.90
24902;DHT22;31328;51.402;0.016;2022-11-11T17:10:38;14.80;99.90
24902;DHT22;31328;51.402;0.016;2022-11-11T17:13:24;14.70;99.90
24902;DHT22;31328;51.402;0.016;2022-11-11T17:16:12;14.70;99.90
24902;DHT22;31328;51.402;0.016;2022-11-11T17:19:00;14.70;99.90
24902;DHT22;31328;51.402;0.016;2022-11-11T17:21:45;14.70;99.90
24902;DHT22;31328;51.402;0.016;2022-11-11T17:24:31;14.70;99.90
24902;DHT22;31328;51.402;0.016;2022-11-11T17:27:15;14.70;99.90
24902;DHT22;31328;51.402;0.016;2022-11-11T17:30:00;14.60;99.90
24902;DHT22;31328;51.402;0.016;2022-11-11T17:32:46;14.60;99.90
24902;DHT22;31328;51.402;0.016;2022-11-11T17:35:30;14.60;99.90
24902;DHT22;31328;51.402;0.016;2022-11-11T17:38:16;14.60;99.90
24902;DHT22;31328;51.402;0.016;2022-11-11T17:41:00;14.60;99.90
24902;DHT22;31328;51.402;0.016;2022-11-11T17:43:45;14.50;99.90
24902;DHT22;31328;51.402;0.016;2022-11-11T17:46:30;14.50;99.90
24902;DHT22;31328;51.402;0.016;2022-11-11T17:49:15;14.50;99.90
24902;DHT22;31328;51.402;0.016;2022-11-11T17:52:01;14.50;99.90
24902;DHT22;31328;51.402;0.016;2022-11-11T17:54:46;14.50;99.90
24902;DHT22;31328;51.402;0.016;2022-11-11T17:57:30;14.50;99.90
24902;DHT22;31328;51.402;0.016;2022-11-11T18:00:16;14.50;99.90
24902;DHT22;31328;51.402;0.016;2022-11-11T18:03:01;14.50;99.90
24902;DHT22;31328;51.402;0.016;2022-11-11T18:05:46;14.50;99.90
24902;DHT22;31328;51.402;0.016;2022-11-11T18:08:31;14.50;99.90
24902;DHT22;31328;51.402;0.016;2022-11-11T18:11:16;14.50;99.90
24902;DHT22;31328;51.402;0.016;2022-11-11T18:14:01;14.50;99.90
24902;DHT22;31328;51.402;0.016;2022-11-11T18:16:46;14.50;99.90
24902;DHT22;31328;51.402;0.016;2022-11-11T18:19:31;14.50;99.90
24902;DHT22;31328;51.402;0.016;2022-11-11T18:22:16;14.50;99.90
24902;DHT22;31328;51.402;0.016;2022-11-11T18:25:01;14.40;99.90
24902;DHT22;31328;51.402;0.016;2022-11-11T18:27:46;14.40;99.90
24902;DHT22;31328;51.402;0.016;2022-11-11T18:30:30;14.40;99.90
24902;DHT22;31328;51.402;0.016;2022-11-11T18:33:15;14.40;99.90
24902;DHT22;31328;51.402;0.016;2022-11-11T18:36:05;14.30;99.90
24902;DHT22;31328;51.402;0.016;2022-11-11T18:38:50;14.30;99.90
24902;DHT22;31328;51.402;0.016;2022-11-11T18:41:35;14.30;99.90
24902;DHT22;31328;51.402;0.016;2022-11-11T18:44:20;14.30;99.90
24902;DHT22;31328;51.402;0.016;2022-11-11T18:47:05;14.30;99.90
24902;DHT22;31328;51.402;0.016;2022-11-11T18:49:50;14.20;99.90
24902;DHT22;31328;51.402;0.016;2022-11-11T18:52:34;14.20;99.90
24902;DHT22;31328;51.402;0.016;2022-11-11T18:55:20;14.20;99.90
24902;DHT22;31328;51.402;0.016;2022-11-11T18:58:04;14.20;99.90
24902;DHT22;31328;51.402;0.016;2022-11-11T19:00:49;14.20;99.90
24902;DHT22;31328;51.402;0.016;2022-11-11T19:03:35;14.20;99.90
24902;DHT22;31328;51.402;0.016;2022-11-11T19:06:20;14.20;99.90
24902;DHT22;31328;51.402;0.016;2022-11-11T19:09:07;14.10;99.90
24902;DHT22;31328;51.402;0.016;2022-11-11T19:11:52;14.10;99.90
24902;DHT22;31328;51.402;0.016;2022-11-11T19:14:37;14.10;99.90
24902;DHT22;31328;51.402;0.016;2022-11-11T19:17:22;14.10;99.90
24902;DHT22;31328;51.402;0.016;2022-11-11T19:20:07;14.00;99.90
24902;DHT22;31328;51.402;0.016;2022-11-11T19:22:52;14.10;99.90
24902;DHT22;31328;51.402;0.016;2022-11-11T19:25:37;14.00;99.90
24902;DHT22;31328;51.402;0.016;2022-11-11T19:28:22;14.00;99.90
24902;DHT22;31328;51.402;0.016;2022-11-11T19:31:09;14.00;99.90
24902;DHT22;31328;51.402;0.016;2022-11-11T19:33:56;13.90;99.90
24902;DHT22;31328;51.402;0.016;2022-11-11T19:36:41;13.90;99.90
24902;DHT22;31328;51.402;0.016;2022-11-11T19:39:26;13.90;99.90
24902;DHT22;31328;51.402;0.016;2022-11-11T19:42:11;13.80;99.90
24902;DHT22;31328;51.402;0.016;2022-11-11T19:44:55;13.80;99.90
24902;DHT22;31328;51.402;0.016;2022-11-11T19:47:41;13.80;99.90
24902;DHT22;31328;51.402;0.016;2022-11-11T19:50:26;13.80;99.90
24902;DHT22;31328;51.402;0.016;2022-11-11T19:53:12;13.70;99.90
24902;DHT22;31328;51.402;0.016;2022-11-11T19:55:59;13.70;99.90
24902;DHT22;31328;51.402;0.016;2022-11-11T19:58:45;13.60;99.90
24902;DHT22;31328;51.402;0.016;2022-11-11T20:01:30;13.60;99.90
24902;DHT22;31328;51.402;0.016;2022-11-11T20:04:15;13.50;99.90
24902;DHT22;31328;51.402;0.016;2022-11-11T20:06:59;13.50;99.90
24902;DHT22;31328;51.402;0.016;2022-11-11T20:09:44;13.40;99.90
24902;DHT22;31328;51.402;0.016;2022-11-11T20:12:29;13.30;99.90
24902;DHT22;31328;51.402;0.016;2022-11-11T20:15:13;13.30;99.90
24902;DHT22;31328;51.402;0.016;2022-11-11T20:17:59;13.20;99.90